Time,TemperatureF,DewpointF,PressureIn,WindDirection,WindDirectionDegrees,WindSpeedMPH,WindSpeedGustMPH,Humidity,HourlyPrecipIn,Conditions,Clouds,dailyrainin,SoftwareType,DateUTC
2013-03-05 00:01:00,45.1,40.5,29.88,East,90,2.2,2.5,84,0.00,,,0.00,HAL,2013-03-04 23:01:00,
2013-03-05 00:06:00,45.0,40.0,29.88,ENE,68,2.7,2.7,83,0.00,,,0.00,HAL,2013-03-04 23:06:00,
2013-03-05 00:11:00,44.8,40.2,29.88,ENE,68,2.7,2.7,84,0.00,,,0.00,HAL,2013-03-04 23:11:00,
2013-03-05 00:16:00,44.8,40.2,29.88,ENE,68,2.5,2.7,84,0.00,,,0.00,HAL,2013-03-04 23:16:00,
2013-03-05 00:21:00,44.8,40.2,29.85,East,90,2.9,3.1,84,0.00,,,0.00,HAL,2013-03-04 23:21:00,
2013-03-05 00:26:00,44.8,40.2,29.85,East,90,2.2,2.7,84,0.00,,,0.00,HAL,2013-03-04 23:26:00,
2013-03-05 00:31:00,45.0,40.4,29.85,East,90,2.0,2.5,84,0.00,,,0.00,HAL,2013-03-04 23:31:00,
2013-03-05 00:36:00,45.1,40.5,29.88,East,90,3.1,3.4,84,0.00,,,0.00,HAL,2013-03-04 23:36:00,
2013-03-05 00:41:00,45.1,40.5,29.88,East,90,2.0,2.0,84,0.00,,,0.00,HAL,2013-03-04 23:41:00,
2013-03-05 00:46:00,44.8,40.2,29.88,East,90,1.3,0.0,84,0.00,,,0.00,HAL,2013-03-04 23:46:00,
2013-03-05 00:51:00,44.6,39.7,29.85,ESE,112,1.1,0.0,83,0.00,,,0.00,HAL,2013-03-04 23:51:00,
2013-03-05 00:56:00,44.4,39.8,29.85,East,90,0.0,0.0,84,0.00,,,0.00,HAL,2013-03-04 23:56:00,
2013-03-05 01:01:00,44.2,40.0,29.85,NE,45,0.0,0.0,85,0.00,,,0.00,HAL,2013-03-05 00:01:00,
2013-03-05 01:06:00,43.9,39.3,29.83,ENE,68,0.0,0.0,84,0.00,,,0.00,HAL,2013-03-05 00:06:00,
2013-03-05 01:11:00,43.7,39.1,29.83,South,180,1.1,0.0,84,0.00,,,0.00,HAL,2013-03-05 00:11:00,
2013-03-05 01:16:00,43.7,39.4,29.83,East,90,0.0,0.0,85,0.00,,,0.00,HAL,2013-03-05 00:16:00,
2013-03-05 01:21:00,43.5,39.9,29.85,NE,45,2.0,2.0,87,0.00,,,0.00,HAL,2013-03-05 00:21:00,
2013-03-05 01:26:00,43.3,39.4,29.85,East,90,0.0,2.0,86,0.00,,,0.00,HAL,2013-03-05 00:26:00,
2013-03-05 01:31:00,43.2,38.9,29.85,East,90,0.0,0.0,85,0.00,,,0.00,HAL,2013-03-05 00:31:00,
2013-03-05 01:36:00,43.2,39.2,29.85,East,90,0.0,0.0,86,0.00,,,0.00,HAL,2013-03-05 00:36:00,
2013-03-05 01:41:00,43.0,39.0,29.85,NE,45,0.0,0.0,86,0.00,,,0.00,HAL,2013-03-05 00:41:00,
2013-03-05 01:46:00,43.0,38.7,29.85,East,90,3.1,3.1,85,0.00,,,0.00,HAL,2013-03-05 00:46:00,
2013-03-05 01:51:00,43.0,39.0,29.85,ENE,68,3.4,3.6,86,0.00,,,0.00,HAL,2013-03-05 00:51:00,
2013-03-05 01:56:00,43.2,39.8,29.85,NE,45,1.6,2.2,88,0.00,,,0.00,HAL,2013-03-05 00:56:00,
2013-03-05 02:01:00,43.0,39.6,29.85,NE,45,2.0,2.0,88,0.00,,,0.00,HAL,2013-03-05 01:01:00,
2013-03-05 02:06:00,42.8,39.2,29.85,NE,45,0.0,0.0,87,0.00,,,0.00,HAL,2013-03-05 01:06:00,
2013-03-05 02:11:00,42.6,39.0,29.85,NE,45,0.0,0.0,87,0.00,,,0.00,HAL,2013-03-05 01:11:00,
2013-03-05 02:16:00,42.4,38.5,29.85,South,180,0.0,0.0,86,0.00,,,0.00,HAL,2013-03-05 01:16:00,
2013-03-05 02:21:00,42.4,38.5,29.88,SE,135,0.0,0.0,86,0.00,,,0.00,HAL,2013-03-05 01:21:00,
2013-03-05 02:26:00,42.3,38.6,29.88,SSW,202,0.0,0.0,87,0.00,,,0.00,HAL,2013-03-05 01:26:00,
2013-03-05 02:31:00,42.3,38.6,29.88,SSW,202,0.0,0.0,87,0.00,,,0.00,HAL,2013-03-05 01:31:00,
2013-03-05 02:36:00,42.1,38.4,29.85,SSW,202,0.0,0.9,87,0.00,,,0.00,HAL,2013-03-05 01:36:00,
2013-03-05 02:41:00,42.1,38.4,29.85,West,270,0.0,0.0,87,0.00,,,0.00,HAL,2013-03-05 01:41:00,
2013-03-05 02:46:00,42.1,38.4,29.85,WSW,248,0.0,0.0,87,0.00,,,0.00,HAL,2013-03-05 01:46:00,
2013-03-05 02:51:00,42.1,38.4,29.88,West,270,0.0,0.0,87,0.00,,,0.00,HAL,2013-03-05 01:51:00,
2013-03-05 02:56:00,42.1,38.4,29.88,WNW,292,0.0,0.0,87,0.00,,,0.00,HAL,2013-03-05 01:56:00,
2013-03-05 03:01:00,42.1,39.0,29.88,North,0,0.0,0.0,89,0.00,,,0.00,HAL,2013-03-05 02:01:00,
2013-03-05 03:06:00,42.1,39.3,29.88,NE,45,0.0,0.0,90,0.00,,,0.00,HAL,2013-03-05 02:06:00,
2013-03-05 03:11:00,42.1,39.0,29.88,NE,45,2.5,2.7,89,0.00,,,0.00,HAL,2013-03-05 02:11:00,
2013-03-05 03:16:00,42.3,39.5,29.88,NE,45,0.0,0.0,90,0.00,,,0.00,HAL,2013-03-05 02:16:00,
2013-03-05 03:21:00,41.7,39.0,29.85,ENE,68,0.0,0.0,90,0.00,,,0.00,HAL,2013-03-05 02:21:00,
2013-03-05 03:26:00,41.7,38.7,29.85,East,90,1.6,1.6,89,0.00,,,0.00,HAL,2013-03-05 02:26:00,
2013-03-05 03:31:00,41.7,39.0,29.85,East,90,2.2,2.7,90,0.00,,,0.00,HAL,2013-03-05 02:31:00,
2013-03-05 03:36:00,41.7,39.0,29.88,East,90,2.0,3.4,90,0.00,,,0.00,HAL,2013-03-05 02:36:00,
2013-03-05 03:41:00,41.7,38.7,29.88,East,90,4.0,6.0,89,0.00,,,0.00,HAL,2013-03-05 02:41:00,
2013-03-05 03:46:00,41.9,39.4,29.88,NE,45,2.5,2.5,91,0.00,,,0.00,HAL,2013-03-05 02:46:00,
2013-03-05 03:51:00,41.7,39.2,29.85,NE,45,2.5,3.1,91,0.00,,,0.00,HAL,2013-03-05 02:51:00,
2013-03-05 03:56:00,41.9,39.2,29.85,ESE,112,5.8,5.8,90,0.00,,,0.00,HAL,2013-03-05 02:56:00,
2013-03-05 04:01:00,42.6,40.2,29.85,SE,135,4.9,4.9,91,0.00,,,0.00,HAL,2013-03-05 03:01:00,
2013-03-05 04:06:00,43.2,40.7,29.85,East,90,5.6,5.6,91,0.00,,,0.00,HAL,2013-03-05 03:06:00,
2013-03-05 04:11:00,43.7,40.9,29.85,East,90,4.5,4.5,90,0.00,,,0.00,HAL,2013-03-05 03:11:00,
2013-03-05 04:16:00,44.1,41.0,29.85,SE,135,4.5,5.4,89,0.00,,,0.00,HAL,2013-03-05 03:16:00,
2013-03-05 04:21:00,44.2,40.9,29.85,East,90,5.4,6.0,88,0.00,,,0.00,HAL,2013-03-05 03:21:00,
2013-03-05 04:26:00,44.6,40.9,29.85,SE,135,6.0,6.0,87,0.00,,,0.00,HAL,2013-03-05 03:26:00,
2013-03-05 04:31:00,44.6,40.6,29.85,ENE,68,3.8,3.8,86,0.00,,,0.00,HAL,2013-03-05 03:31:00,
2013-03-05 04:36:00,44.2,40.3,29.83,ENE,68,3.6,4.2,86,0.00,,,0.00,HAL,2013-03-05 03:36:00,
2013-03-05 04:42:00,44.2,39.7,29.83,ENE,68,3.6,4.2,84,0.00,,,0.00,HAL,2013-03-05 03:42:00,
2013-03-05 04:47:00,44.1,39.5,29.83,ENE,68,5.4,5.4,84,0.00,,,0.00,HAL,2013-03-05 03:47:00,
2013-03-05 04:52:00,44.1,39.5,29.83,East,90,4.0,4.0,84,0.00,,,0.00,HAL,2013-03-05 03:52:00,
2013-03-05 04:57:00,44.2,39.7,29.83,East,90,4.2,4.2,84,0.00,,,0.00,HAL,2013-03-05 03:57:00,
2013-03-05 05:02:00,44.1,39.5,29.83,NNE,22,4.0,4.0,84,0.00,,,0.00,HAL,2013-03-05 04:02:00,
2013-03-05 05:07:00,43.7,38.8,29.83,WSW,248,3.6,3.6,83,0.00,,,0.00,HAL,2013-03-05 04:07:00,
2013-03-05 05:12:00,43.0,37.8,29.83,WNW,292,1.1,0.0,82,0.00,,,0.00,HAL,2013-03-05 04:12:00,
2013-03-05 05:17:00,42.6,37.8,29.83,SSE,158,1.1,2.5,83,0.00,,,0.00,HAL,2013-03-05 04:17:00,
2013-03-05 05:22:00,42.4,37.9,29.83,South,180,2.7,2.7,84,0.00,,,0.00,HAL,2013-03-05 04:22:00,
2013-03-05 05:27:00,42.4,37.9,29.83,SSE,158,0.9,1.6,84,0.00,,,0.00,HAL,2013-03-05 04:27:00,
2013-03-05 05:32:00,42.3,37.7,29.83,SSE,158,0.9,1.6,84,0.00,,,0.00,HAL,2013-03-05 04:32:00,
2013-03-05 05:37:00,42.3,38.0,29.83,SSE,158,0.0,0.0,85,0.00,,,0.00,HAL,2013-03-05 04:37:00,
2013-03-05 05:42:00,42.3,38.0,29.83,East,90,3.1,3.8,85,0.00,,,0.00,HAL,2013-03-05 04:42:00,
2013-03-05 05:47:00,42.4,38.2,29.83,NE,45,2.7,2.7,85,0.00,,,0.00,HAL,2013-03-05 04:47:00,
2013-03-05 05:52:00,42.4,38.2,29.83,ENE,68,2.7,2.7,85,0.00,,,0.00,HAL,2013-03-05 04:52:00,
2013-03-05 05:57:00,42.3,38.0,29.83,NE,45,2.0,2.0,85,0.00,,,0.00,HAL,2013-03-05 04:57:00,
2013-03-05 06:02:00,42.3,38.3,29.83,East,90,2.2,2.9,86,0.00,,,0.00,HAL,2013-03-05 05:02:00,
2013-03-05 06:07:00,41.9,38.0,29.80,East,90,2.2,2.9,86,0.00,,,0.00,HAL,2013-03-05 05:07:00,
2013-03-05 06:12:00,41.7,38.1,29.80,East,90,2.2,2.9,87,0.00,,,0.00,HAL,2013-03-05 05:12:00,
2013-03-05 06:17:00,41.5,38.2,29.80,NE,45,2.7,2.7,88,0.00,,,0.00,HAL,2013-03-05 05:17:00,
2013-03-05 06:22:00,41.4,38.3,29.80,NE,45,3.4,3.4,89,0.00,,,0.00,HAL,2013-03-05 05:22:00,
2013-03-05 06:27:00,41.5,38.8,29.80,NE,45,3.6,3.6,90,0.00,,,0.00,HAL,2013-03-05 05:27:00,
2013-03-05 06:32:00,41.5,39.1,29.80,NE,45,2.5,2.5,91,0.00,,,0.00,HAL,2013-03-05 05:32:00,
2013-03-05 06:37:00,41.5,39.1,29.80,ENE,68,3.1,5.8,91,0.00,,,0.00,HAL,2013-03-05 05:37:00,
2013-03-05 06:42:00,41.7,39.0,29.80,East,90,2.7,2.7,90,0.00,,,0.00,HAL,2013-03-05 05:42:00,
2013-03-05 06:47:00,41.9,38.9,29.80,ESE,112,3.8,4.7,89,0.00,,,0.00,HAL,2013-03-05 05:47:00,
2013-03-05 06:52:00,42.1,39.0,29.80,NE,45,1.3,2.2,89,0.00,,,0.00,HAL,2013-03-05 05:52:00,
2013-03-05 06:57:00,41.5,38.2,29.80,NNE,22,1.6,1.6,88,0.00,,,0.00,HAL,2013-03-05 05:57:00,
2013-03-05 07:02:00,41.5,38.2,29.80,NE,45,0.0,0.0,88,0.00,,,0.00,HAL,2013-03-05 06:02:00,
2013-03-05 07:07:00,41.7,38.4,29.80,SE,135,0.9,0.0,88,0.00,,,0.00,HAL,2013-03-05 06:07:00,
2013-03-05 07:12:00,41.7,38.4,29.80,SSE,158,2.2,2.2,88,0.00,,,0.00,HAL,2013-03-05 06:12:00,
2013-03-05 07:17:00,42.4,39.1,29.80,SE,135,2.9,3.6,88,0.00,,,0.00,HAL,2013-03-05 06:17:00,
2013-03-05 07:22:00,43.0,39.6,29.80,ESE,112,2.5,3.6,88,0.00,,,0.00,HAL,2013-03-05 06:22:00,
2013-03-05 07:27:00,43.0,39.3,29.80,East,90,2.0,2.5,87,0.00,,,0.00,HAL,2013-03-05 06:27:00,
2013-03-05 07:32:00,43.0,39.3,29.80,NNE,22,2.5,2.5,87,0.00,,,0.00,HAL,2013-03-05 06:32:00,
2013-03-05 07:37:00,43.7,40.0,29.80,SE,135,3.1,3.1,87,0.00,,,0.00,HAL,2013-03-05 06:37:00,
2013-03-05 07:42:00,44.2,40.6,29.80,ESE,112,3.4,4.5,87,0.00,,,0.00,HAL,2013-03-05 06:42:00,
2013-03-05 07:47:00,45.0,41.0,29.80,SE,135,2.7,3.4,86,0.00,,,0.00,HAL,2013-03-05 06:47:00,
2013-03-05 07:52:00,45.9,41.9,29.83,ESE,112,2.7,2.7,86,0.00,,,0.00,HAL,2013-03-05 06:52:00,
2013-03-05 07:57:00,45.9,40.9,29.83,East,90,0.9,3.1,83,0.00,,,0.00,HAL,2013-03-05 06:57:00,
2013-03-05 08:02:00,46.0,41.1,29.83,NE,45,1.1,2.5,83,0.00,,,0.00,HAL,2013-03-05 07:02:00,
2013-03-05 08:07:00,46.2,41.3,29.83,East,90,2.7,3.4,83,0.00,,,0.00,HAL,2013-03-05 07:07:00,
2013-03-05 08:12:00,46.8,41.8,29.83,East,90,4.7,6.3,83,0.00,,,0.00,HAL,2013-03-05 07:12:00,
2013-03-05 08:17:00,47.5,42.5,29.83,East,90,3.1,3.6,83,0.00,,,0.00,HAL,2013-03-05 07:17:00,
2013-03-05 08:22:00,47.8,42.5,29.83,ESE,112,5.6,5.8,82,0.00,,,0.00,HAL,2013-03-05 07:22:00,
2013-03-05 08:27:00,48.0,42.4,29.83,SSE,158,4.9,6.0,81,0.00,,,0.00,HAL,2013-03-05 07:27:00,
2013-03-05 08:32:00,48.2,41.2,29.83,East,90,5.4,6.0,77,0.00,,,0.00,HAL,2013-03-05 07:32:00,
2013-03-05 08:37:00,48.4,41.8,29.83,SE,135,3.8,3.8,78,0.00,,,0.00,HAL,2013-03-05 07:37:00,
2013-03-05 08:42:00,48.6,41.6,29.83,ESE,112,4.5,4.5,77,0.00,,,0.00,HAL,2013-03-05 07:42:00,
2013-03-05 08:47:00,48.9,42.0,29.83,East,90,4.9,6.5,77,0.00,,,0.00,HAL,2013-03-05 07:47:00,
2013-03-05 08:52:00,49.6,42.3,29.83,East,90,3.1,3.1,76,0.00,,,0.00,HAL,2013-03-05 07:52:00,
2013-03-05 08:57:00,50.2,42.8,29.83,East,90,3.6,3.6,76,0.00,,,0.00,HAL,2013-03-05 07:57:00,
2013-03-05 09:02:00,50.7,43.0,29.83,East,90,3.6,3.6,75,0.00,,,0.00,HAL,2013-03-05 08:02:00,
2013-03-05 09:07:00,51.3,43.5,29.85,ENE,68,2.7,2.7,75,0.00,,,0.00,HAL,2013-03-05 08:07:00,
2013-03-05 09:12:00,51.6,43.5,29.85,SE,135,2.7,6.0,74,0.00,,,0.00,HAL,2013-03-05 08:12:00,
2013-03-05 09:18:00,51.3,43.2,29.85,NE,45,2.7,2.7,74,0.00,,,0.00,HAL,2013-03-05 08:18:00,
2013-03-05 09:23:00,51.3,43.2,29.85,ENE,68,2.5,2.9,74,0.00,,,0.00,HAL,2013-03-05 08:23:00,
2013-03-05 09:28:00,51.6,43.2,29.85,ENE,68,2.0,3.4,73,0.00,,,0.00,HAL,2013-03-05 08:28:00,
2013-03-05 09:33:00,51.8,43.0,29.85,NNE,22,4.0,4.0,72,0.00,,,0.00,HAL,2013-03-05 08:33:00,
2013-03-05 09:38:00,51.6,42.8,29.85,East,90,2.5,2.5,72,0.00,,,0.00,HAL,2013-03-05 08:38:00,
2013-03-05 09:43:00,51.6,42.8,29.85,NE,45,3.4,3.4,72,0.00,,,0.00,HAL,2013-03-05 08:43:00,
2013-03-05 09:48:00,51.6,42.8,29.85,NE,45,3.1,3.1,72,0.00,,,0.00,HAL,2013-03-05 08:48:00,
2013-03-05 09:53:00,52.0,42.8,29.85,NE,45,3.1,3.1,71,0.00,,,0.00,HAL,2013-03-05 08:53:00,
2013-03-05 09:58:00,52.0,42.4,29.85,NE,45,2.0,2.7,70,0.00,,,0.00,HAL,2013-03-05 08:58:00,
2013-03-05 10:03:00,51.6,42.4,29.85,NE,45,2.0,2.7,71,0.00,,,0.00,HAL,2013-03-05 09:03:00,
2013-03-05 10:08:00,51.4,41.9,29.83,NE,45,2.0,2.7,70,0.00,,,0.00,HAL,2013-03-05 09:08:00,
2013-03-05 10:13:00,51.4,41.1,29.83,North,0,4.7,6.5,68,0.00,,,0.00,HAL,2013-03-05 09:13:00,
2013-03-05 10:18:00,51.6,41.3,29.83,North,0,4.2,4.2,68,0.00,,,0.00,HAL,2013-03-05 09:18:00,
2013-03-05 10:23:00,51.8,40.7,29.85,NE,45,4.2,4.2,66,0.00,,,0.00,HAL,2013-03-05 09:23:00,
2013-03-05 10:28:00,52.2,41.0,29.85,NE,45,4.7,4.9,66,0.00,,,0.00,HAL,2013-03-05 09:28:00,
2013-03-05 10:33:00,52.2,41.0,29.85,NE,45,4.7,4.9,66,0.00,,,0.00,HAL,2013-03-05 09:33:00,
2013-03-05 10:38:00,52.3,41.2,29.85,NE,45,4.5,4.5,66,0.00,,,0.00,HAL,2013-03-05 09:38:00,
2013-03-05 10:43:00,52.7,41.5,29.85,NE,45,3.6,4.2,66,0.00,,,0.00,HAL,2013-03-05 09:43:00,
2013-03-05 10:48:00,53.1,41.5,29.85,NE,45,2.7,3.4,65,0.00,,,0.00,HAL,2013-03-05 09:48:00,
2013-03-05 10:53:00,53.6,41.6,29.83,NNE,22,2.5,3.6,64,0.00,,,0.00,HAL,2013-03-05 09:53:00,
2013-03-05 10:58:00,54.0,41.5,29.83,NNE,22,2.5,3.6,63,0.00,,,0.00,HAL,2013-03-05 09:58:00,
2013-03-05 11:03:00,54.3,41.5,29.83,NE,45,3.1,3.1,62,0.00,,,0.00,HAL,2013-03-05 10:03:00,
2013-03-05 11:08:00,54.3,41.9,29.83,North,0,3.6,3.6,63,0.00,,,0.00,HAL,2013-03-05 10:08:00,
2013-03-05 11:13:00,54.7,42.6,29.83,NE,45,3.4,3.8,64,0.00,,,0.00,HAL,2013-03-05 10:13:00,
2013-03-05 11:18:00,54.9,42.4,29.83,NNE,22,3.4,3.4,63,0.00,,,0.00,HAL,2013-03-05 10:18:00,
2013-03-05 11:23:00,55.2,42.3,29.83,NE,45,2.5,3.8,62,0.00,,,0.00,HAL,2013-03-05 10:23:00,
2013-03-05 11:28:00,55.9,43.0,29.83,NW,315,0.0,0.0,62,0.00,,,0.00,HAL,2013-03-05 10:28:00,
2013-03-05 11:33:00,56.3,43.3,29.83,NE,45,2.7,2.9,62,0.00,,,0.00,HAL,2013-03-05 10:33:00,
2013-03-05 11:38:00,56.5,42.7,29.83,ENE,68,2.9,2.9,60,0.00,,,0.00,HAL,2013-03-05 10:38:00,
2013-03-05 11:43:00,56.7,42.8,29.83,North,0,2.9,3.1,60,0.00,,,0.00,HAL,2013-03-05 10:43:00,
2013-03-05 11:48:00,56.7,42.4,29.83,NNE,22,3.1,3.8,59,0.00,,,0.00,HAL,2013-03-05 10:48:00,
2013-03-05 11:53:00,56.7,42.4,29.83,North,0,2.9,2.9,59,0.00,,,0.00,HAL,2013-03-05 10:53:00,
2013-03-05 11:58:00,57.0,42.7,29.83,North,0,3.4,3.4,59,0.00,,,0.00,HAL,2013-03-05 10:58:00,
2013-03-05 12:03:00,57.2,42.0,29.83,NNE,22,2.9,2.9,57,0.00,,,0.00,HAL,2013-03-05 11:03:00,
2013-03-05 12:08:00,57.6,42.8,29.80,East,90,0.0,0.0,58,0.00,,,0.00,HAL,2013-03-05 11:08:00,
2013-03-05 12:13:00,57.9,41.2,29.80,SE,135,4.5,4.5,54,0.00,,,0.00,HAL,2013-03-05 11:13:00,
2013-03-05 12:18:00,58.5,40.3,29.80,SSE,158,3.6,3.6,51,0.00,,,0.00,HAL,2013-03-05 11:18:00,
2013-03-05 12:23:00,58.8,40.6,29.80,ENE,68,1.6,1.6,51,0.00,,,0.00,HAL,2013-03-05 11:23:00,
2013-03-05 12:28:00,59.0,40.2,29.80,SSE,158,3.8,4.0,50,0.00,,,0.00,HAL,2013-03-05 11:28:00,
2013-03-05 12:33:00,59.2,39.9,29.80,SSE,158,3.8,3.8,49,0.00,,,0.00,HAL,2013-03-05 11:33:00,
2013-03-05 12:38:00,59.2,39.4,29.80,ESE,112,4.5,4.7,48,0.00,,,0.00,HAL,2013-03-05 11:38:00,
2013-03-05 12:43:00,59.2,38.8,29.80,SSE,158,4.9,4.9,47,0.00,,,0.00,HAL,2013-03-05 11:43:00,
2013-03-05 12:48:00,59.4,38.4,29.80,SSW,202,3.6,4.9,46,0.00,,,0.00,HAL,2013-03-05 11:48:00,
2013-03-05 12:53:00,59.5,38.6,29.77,South,180,2.7,3.1,46,0.00,,,0.00,HAL,2013-03-05 11:53:00,
2013-03-05 12:58:00,59.7,37.6,29.77,SE,135,6.0,6.0,44,0.00,,,0.00,HAL,2013-03-05 11:58:00,
2013-03-05 13:03:00,59.9,38.4,29.77,SSW,202,3.6,3.6,45,0.00,,,0.00,HAL,2013-03-05 12:03:00,
2013-03-05 13:08:00,60.1,38.5,29.80,SE,135,4.0,4.0,45,0.00,,,0.00,HAL,2013-03-05 12:08:00,
2013-03-05 13:13:00,60.3,38.1,29.80,SSE,158,4.2,4.2,44,0.00,,,0.00,HAL,2013-03-05 12:13:00,
2013-03-05 13:18:00,60.3,37.5,29.80,SSE,158,4.9,4.9,43,0.00,,,0.00,HAL,2013-03-05 12:18:00,
2013-03-05 13:23:00,60.4,37.1,29.80,South,180,4.9,4.9,42,0.00,,,0.00,HAL,2013-03-05 12:23:00,
2013-03-05 13:28:00,60.4,35.8,29.80,SE,135,6.5,6.5,40,0.00,,,0.00,HAL,2013-03-05 12:28:00,
2013-03-05 13:33:00,60.4,34.6,29.80,SSW,202,6.3,7.8,38,0.00,,,0.00,HAL,2013-03-05 12:33:00,
2013-03-05 13:38:00,60.6,35.4,29.80,SW,225,2.5,5.4,39,0.00,,,0.00,HAL,2013-03-05 12:38:00,
2013-03-05 13:43:00,61.0,35.0,29.80,SE,135,8.9,8.9,38,0.00,,,0.00,HAL,2013-03-05 12:43:00,
2013-03-05 13:48:00,61.0,35.7,29.80,SSE,158,9.4,9.4,39,0.00,,,0.00,HAL,2013-03-05 12:48:00,
2013-03-05 13:53:00,61.2,35.9,29.80,SSW,202,4.0,4.0,39,0.00,,,0.00,HAL,2013-03-05 12:53:00,
2013-03-05 13:58:00,61.2,35.2,29.80,SSE,158,6.0,9.6,38,0.00,,,0.00,HAL,2013-03-05 12:58:00,
2013-03-05 14:03:00,60.8,34.2,29.80,North,0,5.8,5.8,37,0.00,,,0.00,HAL,2013-03-05 13:03:00,
2013-03-05 14:08:00,60.6,34.7,29.80,South,180,4.2,4.2,38,0.00,,,0.00,HAL,2013-03-05 13:08:00,
2013-03-05 14:13:00,60.4,34.6,29.80,SSE,158,5.6,7.6,38,0.00,,,0.00,HAL,2013-03-05 13:13:00,
2013-03-05 14:18:00,60.4,35.2,29.80,SE,135,7.2,7.2,39,0.00,,,0.00,HAL,2013-03-05 13:18:00,
2013-03-05 14:23:00,60.1,34.2,29.77,SE,135,4.9,6.0,38,0.00,,,0.00,HAL,2013-03-05 13:23:00,
2013-03-05 14:28:00,59.9,34.7,29.77,SSE,158,4.9,4.9,39,0.00,,,0.00,HAL,2013-03-05 13:28:00,
2013-03-05 14:33:00,59.7,35.2,29.77,ESE,112,4.5,4.9,40,0.00,,,0.00,HAL,2013-03-05 13:33:00,
2013-03-05 14:38:00,59.7,35.8,29.77,ESE,112,2.7,3.6,41,0.00,,,0.00,HAL,2013-03-05 13:38:00,
2013-03-05 14:43:00,59.5,35.0,29.77,SSE,158,5.4,5.4,40,0.00,,,0.00,HAL,2013-03-05 13:43:00,
2013-03-05 14:48:00,59.5,33.1,29.77,SSE,158,8.5,11.0,37,0.00,,,0.00,HAL,2013-03-05 13:48:00,
2013-03-05 14:53:00,59.5,33.1,29.74,SSE,158,5.6,5.6,37,0.00,,,0.00,HAL,2013-03-05 13:53:00,
2013-03-05 14:59:00,59.4,32.9,29.74,SSW,202,5.6,5.8,37,0.00,,,0.00,HAL,2013-03-05 13:59:00,
2013-03-05 15:04:00,59.4,32.9,29.74,South,180,3.4,3.4,37,0.00,,,0.00,HAL,2013-03-05 14:04:00,
2013-03-05 15:09:00,59.2,32.8,29.71,SSW,202,6.0,6.5,37,0.00,,,0.00,HAL,2013-03-05 14:09:00,
2013-03-05 15:14:00,59.2,32.8,29.71,SSW,202,4.2,4.9,37,0.00,,,0.00,HAL,2013-03-05 14:14:00,
2013-03-05 15:19:00,59.2,32.8,29.71,ESE,112,4.5,4.5,37,0.00,,,0.00,HAL,2013-03-05 14:19:00,
2013-03-05 15:24:00,59.0,33.9,29.71,SSE,158,4.9,4.9,39,0.00,,,0.00,HAL,2013-03-05 14:24:00,
2013-03-05 15:29:00,58.8,35.0,29.71,South,180,3.4,3.4,41,0.00,,,0.00,HAL,2013-03-05 14:29:00,
2013-03-05 15:34:00,58.6,34.8,29.71,SE,135,6.0,6.0,41,0.00,,,0.00,HAL,2013-03-05 14:34:00,
2013-03-05 15:39:00,58.5,35.9,29.77,East,90,4.7,5.4,43,0.00,,,0.00,HAL,2013-03-05 14:39:00,
2013-03-05 15:44:00,58.5,35.9,29.77,SE,135,4.7,4.7,43,0.00,,,0.00,HAL,2013-03-05 14:44:00,
2013-03-05 15:49:00,58.6,36.6,29.77,SE,135,3.6,3.6,44,0.00,,,0.00,HAL,2013-03-05 14:49:00,
2013-03-05 15:54:00,58.8,36.2,29.71,SE,135,5.6,5.6,43,0.00,,,0.00,HAL,2013-03-05 14:54:00,
2013-03-05 15:59:00,58.8,36.2,29.71,ESE,112,3.1,3.6,43,0.00,,,0.00,HAL,2013-03-05 14:59:00,
2013-03-05 16:04:00,59.0,35.8,29.71,East,90,4.0,5.4,42,0.00,,,0.00,HAL,2013-03-05 15:04:00,
2013-03-05 16:09:00,59.2,35.3,29.71,ESE,112,4.5,4.5,41,0.00,,,0.00,HAL,2013-03-05 15:09:00,
2013-03-05 16:14:00,59.2,34.7,29.71,SE,135,3.8,3.8,40,0.00,,,0.00,HAL,2013-03-05 15:14:00,
2013-03-05 16:19:00,59.2,34.7,29.71,ESE,112,3.8,5.4,40,0.00,,,0.00,HAL,2013-03-05 15:19:00,
2013-03-05 16:24:00,59.2,35.3,29.68,SE,135,3.6,3.6,41,0.00,,,0.00,HAL,2013-03-05 15:24:00,
2013-03-05 16:29:00,59.2,36.0,29.68,SE,135,2.5,2.5,42,0.00,,,0.00,HAL,2013-03-05 15:29:00,
2013-03-05 16:34:00,59.2,35.3,29.68,SSE,158,3.4,3.4,41,0.00,,,0.00,HAL,2013-03-05 15:34:00,
2013-03-05 16:39:00,59.2,35.3,29.71,ESE,112,3.4,0.0,41,0.00,,,0.00,HAL,2013-03-05 15:39:00,
2013-03-05 16:44:00,59.0,35.8,29.71,SE,135,2.9,2.9,42,0.00,,,0.00,HAL,2013-03-05 15:44:00,
2013-03-05 16:49:00,58.8,35.6,29.71,SE,135,3.4,8.9,42,0.00,,,0.00,HAL,2013-03-05 15:49:00,
2013-03-05 16:54:00,58.6,34.2,29.71,SE,135,5.4,5.4,40,0.00,,,0.00,HAL,2013-03-05 15:54:00,
2013-03-05 16:59:00,58.6,33.6,29.71,SE,135,2.7,3.1,39,0.00,,,0.00,HAL,2013-03-05 15:59:00,
2013-03-05 17:04:00,58.5,34.1,29.71,SSE,158,4.5,4.7,40,0.00,,,0.00,HAL,2013-03-05 16:04:00,
2013-03-05 17:09:00,58.3,33.9,29.68,ESE,112,3.6,3.6,40,0.00,,,0.00,HAL,2013-03-05 16:09:00,
2013-03-05 17:14:00,58.1,33.7,29.68,SE,135,5.6,9.8,40,0.00,,,0.00,HAL,2013-03-05 16:14:00,
2013-03-05 17:19:00,58.1,33.7,29.68,SSE,158,6.7,10.1,40,0.00,,,0.00,HAL,2013-03-05 16:19:00,
2013-03-05 17:24:00,58.1,33.7,29.71,SE,135,6.7,8.1,40,0.00,,,0.00,HAL,2013-03-05 16:24:00,
2013-03-05 17:29:00,57.9,33.6,29.71,South,180,5.4,6.0,40,0.00,,,0.00,HAL,2013-03-05 16:29:00,
2013-03-05 17:34:00,57.9,33.6,29.71,SSW,202,5.6,5.6,40,0.00,,,0.00,HAL,2013-03-05 16:34:00,
2013-03-05 17:39:00,57.9,33.6,29.65,South,180,6.9,6.9,40,0.00,,,0.00,HAL,2013-03-05 16:39:00,
2013-03-05 17:44:00,57.7,32.8,29.65,SSE,158,6.9,6.9,39,0.00,,,0.00,HAL,2013-03-05 16:44:00,
2013-03-05 17:49:00,57.7,32.8,29.65,SSE,158,6.5,7.2,39,0.00,,,0.00,HAL,2013-03-05 16:49:00,
2013-03-05 17:54:00,57.7,32.8,29.68,SSW,202,5.8,5.8,39,0.00,,,0.00,HAL,2013-03-05 16:54:00,
2013-03-05 17:59:00,57.6,33.2,29.68,WSW,248,3.4,5.4,40,0.00,,,0.00,HAL,2013-03-05 16:59:00,
2013-03-05 18:04:00,57.4,33.1,29.68,SSW,202,4.7,4.7,40,0.00,,,0.00,HAL,2013-03-05 17:04:00,
2013-03-05 18:09:00,57.2,32.9,29.68,South,180,2.9,4.9,40,0.00,,,0.00,HAL,2013-03-05 17:09:00,
2013-03-05 18:14:00,57.0,33.4,29.68,SSE,158,3.8,3.8,41,0.00,,,0.00,HAL,2013-03-05 17:14:00,
2013-03-05 18:19:00,56.8,33.2,29.68,SSE,158,3.8,3.8,41,0.00,,,0.00,HAL,2013-03-05 17:19:00,
2013-03-05 18:24:00,56.8,33.2,29.68,South,180,3.8,3.8,41,0.00,,,0.00,HAL,2013-03-05 17:24:00,
2013-03-05 18:29:00,56.7,34.2,29.68,SSW,202,4.2,4.2,43,0.00,,,0.00,HAL,2013-03-05 17:29:00,
2013-03-05 18:34:00,56.3,34.5,29.68,SSW,202,3.1,3.1,44,0.00,,,0.00,HAL,2013-03-05 17:34:00,
2013-03-05 18:39:00,56.1,34.9,29.71,SSE,158,3.8,3.8,45,0.00,,,0.00,HAL,2013-03-05 17:39:00,
2013-03-05 18:44:00,55.9,34.7,29.71,SSW,202,3.8,5.6,45,0.00,,,0.00,HAL,2013-03-05 17:44:00,
2013-03-05 18:49:00,56.1,34.3,29.71,SSE,158,3.6,3.6,44,0.00,,,0.00,HAL,2013-03-05 17:49:00,
2013-03-05 18:54:00,55.9,34.7,29.71,SSE,158,4.2,4.2,45,0.00,,,0.00,HAL,2013-03-05 17:54:00,
2013-03-05 18:59:00,55.6,35.0,29.71,SSE,158,3.4,3.4,46,0.00,,,0.00,HAL,2013-03-05 17:59:00,
2013-03-05 19:04:00,55.2,35.7,29.71,SE,135,4.0,4.0,48,0.00,,,0.00,HAL,2013-03-05 18:04:00,
2013-03-05 19:09:00,54.9,35.4,29.71,ESE,112,2.2,2.7,48,0.00,,,0.00,HAL,2013-03-05 18:09:00,
2013-03-05 19:14:00,54.7,35.2,29.71,ESE,112,2.7,2.7,48,0.00,,,0.00,HAL,2013-03-05 18:14:00,
2013-03-05 19:19:00,54.5,35.6,29.71,SE,135,3.1,3.1,49,0.00,,,0.00,HAL,2013-03-05 18:19:00,
2013-03-05 19:24:00,54.1,35.8,29.71,ESE,112,2.0,2.0,50,0.00,,,0.00,HAL,2013-03-05 18:24:00,
2013-03-05 19:29:00,53.8,35.4,29.71,SSE,158,2.2,2.2,50,0.00,,,0.00,HAL,2013-03-05 18:29:00,
2013-03-05 19:34:00,53.8,35.4,29.71,SSW,202,2.5,2.5,50,0.00,,,0.00,HAL,2013-03-05 18:34:00,
2013-03-05 19:39:00,54.0,35.6,29.71,SSE,158,2.5,2.5,50,0.00,,,0.00,HAL,2013-03-05 18:39:00,
2013-03-05 19:44:00,53.8,36.4,29.71,SSW,202,3.1,3.1,52,0.00,,,0.00,HAL,2013-03-05 18:44:00,
2013-03-05 19:49:00,53.2,37.3,29.71,SW,225,4.2,4.2,55,0.00,,,0.00,HAL,2013-03-05 18:49:00,
2013-03-05 19:54:00,52.9,38.8,29.71,SSW,202,6.5,6.5,59,0.00,,,0.00,HAL,2013-03-05 18:54:00,
2013-03-05 19:59:00,52.9,37.9,29.71,South,180,5.6,5.8,57,0.00,,,0.00,HAL,2013-03-05 18:59:00,
2013-03-05 20:05:00,52.9,38.4,29.74,SSW,202,5.6,5.6,58,0.00,,,0.00,HAL,2013-03-05 19:05:00,
2013-03-05 20:10:00,52.7,38.6,29.74,South,180,6.7,6.7,59,0.00,,,0.00,HAL,2013-03-05 19:10:00,
2013-03-05 20:15:00,52.7,38.6,29.74,SE,135,6.0,6.0,59,0.00,,,0.00,HAL,2013-03-05 19:15:00,
2013-03-05 20:20:00,52.5,38.9,29.74,SW,225,3.8,3.8,60,0.00,,,0.00,HAL,2013-03-05 19:20:00,
2013-03-05 20:25:00,52.5,38.9,29.74,SSW,202,4.5,6.0,60,0.00,,,0.00,HAL,2013-03-05 19:25:00,
2013-03-05 20:30:00,52.2,39.0,29.74,SSW,202,5.6,5.6,61,0.00,,,0.00,HAL,2013-03-05 19:30:00,
2013-03-05 20:35:00,52.0,38.8,29.71,SE,135,5.8,5.8,61,0.00,,,0.00,HAL,2013-03-05 19:35:00,
2013-03-05 20:40:00,51.8,38.7,29.71,ESE,112,6.0,6.0,61,0.00,,,0.00,HAL,2013-03-05 19:40:00,
2013-03-05 20:45:00,51.4,39.5,29.71,East,90,4.2,4.2,64,0.00,,,0.00,HAL,2013-03-05 19:45:00,
2013-03-05 20:50:00,51.1,39.2,29.74,SSE,158,2.9,2.9,64,0.00,,,0.00,HAL,2013-03-05 19:50:00,
2013-03-05 20:55:00,50.9,39.8,29.74,NE,45,2.9,2.9,66,0.00,,,0.00,HAL,2013-03-05 19:55:00,
2013-03-05 21:00:00,50.5,41.8,29.74,East,90,1.3,2.9,72,0.00,,,0.00,HAL,2013-03-05 20:00:00,
2013-03-05 21:05:00,50.2,42.8,29.74,NE,45,4.0,4.0,76,0.00,,,0.00,HAL,2013-03-05 20:05:00,
2013-03-05 21:10:00,50.2,43.2,29.74,East,90,3.6,3.6,77,0.00,,,0.00,HAL,2013-03-05 20:10:00,
2013-03-05 21:15:00,49.8,43.5,29.74,NE,45,2.5,2.9,79,0.00,,,0.00,HAL,2013-03-05 20:15:00,
2013-03-05 21:20:00,49.8,44.8,29.74,NNE,22,4.0,5.6,83,0.00,,,0.00,HAL,2013-03-05 20:20:00,
2013-03-05 21:25:00,49.8,45.4,29.74,NE,45,5.4,5.4,85,0.00,,,0.00,HAL,2013-03-05 20:25:00,
2013-03-05 21:30:00,49.8,45.8,29.74,NE,45,4.9,5.8,86,0.00,,,0.00,HAL,2013-03-05 20:30:00,
2013-03-05 21:35:00,50.0,45.9,29.71,NE,45,6.7,8.5,86,0.00,,,0.00,HAL,2013-03-05 20:35:00,
2013-03-05 21:40:00,50.0,45.6,29.71,NNE,22,5.8,6.3,85,0.00,,,0.00,HAL,2013-03-05 20:40:00,
2013-03-05 21:45:00,50.2,45.5,29.71,NE,45,6.9,6.9,84,0.00,,,0.00,HAL,2013-03-05 20:45:00,
2013-03-05 21:50:00,50.2,45.5,29.74,NE,45,4.9,4.9,84,0.00,,,0.00,HAL,2013-03-05 20:50:00,
2013-03-05 21:55:00,50.2,45.8,29.74,East,90,4.7,4.7,85,0.00,,,0.00,HAL,2013-03-05 20:55:00,
2013-03-05 22:00:00,50.2,45.2,29.74,ENE,68,3.4,3.4,83,0.00,,,0.00,HAL,2013-03-05 21:00:00,
2013-03-05 22:05:00,50.4,45.0,29.74,NE,45,4.0,5.4,82,0.00,,,0.00,HAL,2013-03-05 21:05:00,
2013-03-05 22:10:00,50.4,44.7,29.74,NE,45,4.2,4.2,81,0.00,,,0.00,HAL,2013-03-05 21:10:00,
2013-03-05 22:15:00,50.4,44.4,29.74,NE,45,2.0,3.4,80,0.00,,,0.00,HAL,2013-03-05 21:15:00,
2013-03-05 22:20:00,50.4,43.7,29.71,ENE,68,3.4,3.8,78,0.00,,,0.00,HAL,2013-03-05 21:20:00,
2013-03-05 22:25:00,50.4,44.0,29.71,NE,45,3.4,3.4,79,0.00,,,0.00,HAL,2013-03-05 21:25:00,
2013-03-05 22:30:00,50.4,44.0,29.71,East,90,3.8,3.8,79,0.00,,,0.00,HAL,2013-03-05 21:30:00,
2013-03-05 22:35:00,50.4,43.3,29.71,NE,45,3.8,6.3,77,0.00,,,0.00,HAL,2013-03-05 21:35:00,
2013-03-05 22:40:00,50.5,43.5,29.71,East,90,2.9,4.2,77,0.00,,,0.00,HAL,2013-03-05 21:40:00,
2013-03-05 22:45:00,50.5,43.2,29.71,ENE,68,2.9,4.0,76,0.00,,,0.00,HAL,2013-03-05 21:45:00,
2013-03-05 22:50:00,50.5,42.8,29.68,NE,45,3.6,3.6,75,0.00,,,0.00,HAL,2013-03-05 21:50:00,
2013-03-05 22:55:00,50.7,42.7,29.68,NE,45,3.4,4.9,74,0.00,,,0.00,HAL,2013-03-05 21:55:00,
2013-03-05 23:00:00,50.7,41.9,29.68,ENE,68,3.8,3.8,72,0.00,,,0.00,HAL,2013-03-05 22:00:00,
2013-03-05 23:05:00,50.7,41.6,29.68,NNE,22,4.7,4.7,71,0.00,,,0.00,HAL,2013-03-05 22:05:00,
2013-03-05 23:10:00,50.9,41.4,29.68,East,90,4.5,5.6,70,0.00,,,0.00,HAL,2013-03-05 22:10:00,
2013-03-05 23:15:00,51.1,41.2,29.68,NE,45,3.6,3.6,69,0.00,,,0.00,HAL,2013-03-05 22:15:00,
2013-03-05 23:20:00,51.1,41.2,29.65,East,90,2.7,3.6,69,0.00,,,0.00,HAL,2013-03-05 22:20:00,
2013-03-05 23:25:00,51.1,41.2,29.65,NE,45,0.9,0.0,69,0.00,,,0.00,HAL,2013-03-05 22:25:00,
2013-03-05 23:30:00,50.9,41.4,29.65,East,90,0.0,2.0,70,0.00,,,0.00,HAL,2013-03-05 22:30:00,
2013-03-05 23:35:00,50.9,41.4,29.62,ENE,68,1.6,1.6,70,0.00,,,0.00,HAL,2013-03-05 22:35:00,
2013-03-05 23:40:00,50.7,41.2,29.62,East,90,0.9,2.0,70,0.00,,,0.00,HAL,2013-03-05 22:40:00,
2013-03-05 23:45:00,50.7,40.8,29.62,NE,45,1.6,2.0,69,0.00,,,0.00,HAL,2013-03-05 22:45:00,
2013-03-05 23:50:00,50.9,41.0,29.62,NE,45,2.5,2.5,69,0.00,,,0.00,HAL,2013-03-05 22:50:00,
2013-03-05 23:55:00,50.9,41.0,29.62,NE,45,2.2,2.9,69,0.00,,,0.00,HAL,2013-03-05 22:55:00,